Orbital elements of GLOBALSTAR M095
| Launched | 5 February 2013 |
| Flight ended | – |
| Launch site | Tyuratam Missile and Space Center, Kazakhstan (Also known as Baikonur Cosmodrome) |
| Owner | Globalstar |
| NORAD ID | 39077 |
| Date fetched |
Epoch osculation |
Inc. [°] |
Ecc. | RA asc node [hr] |
Arg Peri. [°] |
Mean anom [°] |
Mean motion [rev/day] |
Abs. mag |
| Date fetched |
Epoch osculation |
Inc. [°] |
Ecc. | RA asc node [hr] |
Arg Peri. [°] |
Mean anom [°] |
Mean motion [rev/day] |
Abs. mag |
| 2026 May 01 17:56 | 2026 May 01 04:37:52 | 52.0088 | 0.00003 | 4.2836 | 120.6119 | 239.4782 | 12.62267 | 7.500 |
| 2026 Apr 30 17:56 | 2026 Apr 30 07:43:35 | 52.0086 | 0.00003 | 4.4604 | 121.9232 | 239.4782 | 12.62267 | 7.500 |
| 2026 Apr 29 17:57 | 2026 Apr 29 12:43:20 | 52.0083 | 0.00003 | 4.6211 | 123.1061 | 239.4782 | 12.62267 | 7.500 |
| 2026 Apr 28 17:56 | 2026 Apr 28 06:18:56 | 52.0079 | 0.00004 | 4.8782 | 125.9346 | 239.4782 | 12.62267 | 7.500 |
| 2026 Apr 27 17:58 | 2026 Apr 27 07:30:38 | 52.0076 | 0.00004 | 5.0710 | 128.9190 | 239.4782 | 12.62267 | 7.500 |
| 2026 Apr 26 17:58 | 2026 Apr 26 06:48:19 | 52.0074 | 0.00004 | 5.2799 | 129.5851 | 239.4782 | 12.62267 | 7.500 |
| 2026 Apr 25 17:58 | 2026 Apr 25 08:00:01 | 52.0072 | 0.00004 | 5.4727 | 130.9010 | 239.4782 | 12.62267 | 7.500 |
| 2026 Apr 24 17:59 | 2026 Apr 24 09:11:43 | 52.0069 | 0.00004 | 5.6655 | 130.7598 | 239.4782 | 12.62267 | 7.500 |
| 2026 Apr 23 17:57 | 2026 Apr 23 06:35:22 | 52.0068 | 0.00004 | 5.8905 | 132.5333 | 239.4782 | 12.62267 | 7.500 |
| 2026 Apr 22 17:57 | 2026 Apr 22 00:10:57 | 52.0066 | 0.00004 | 6.1476 | 135.1466 | 239.4782 | 12.62267 | 7.500 |
| 2026 Apr 21 17:57 | 2026 Apr 21 07:04:44 | 52.0065 | 0.00004 | 6.2922 | 135.7577 | 239.4782 | 12.62267 | 7.500 |
| 2026 Apr 20 17:57 | 2026 Apr 20 00:40:20 | 52.0063 | 0.00005 | 6.5493 | 137.2821 | 239.4782 | 12.62267 | 7.500 |
| 2026 Apr 19 17:58 | 2026 Apr 19 05:40:05 | 52.0062 | 0.00005 | 6.7100 | 138.0994 | 239.4782 | 12.62267 | 7.500 |
| 2026 Apr 18 17:56 | 2026 Apr 18 03:03:44 | 52.0062 | 0.00005 | 6.9350 | 138.2062 | 239.4782 | 12.62267 | 7.500 |
| 2026 Apr 16 17:57 | 2026 Apr 16 07:21:09 | 52.0063 | 0.00005 | 7.3046 | 138.6463 | 239.4782 | 12.62267 | 7.500 |
| 2026 Apr 14 17:57 | 2026 Apr 14 07:50:32 | 52.0061 | 0.00006 | 7.7064 | 138.4524 | 239.4782 | 12.62267 | 7.500 |
| 2026 Apr 13 17:57 | 2026 Apr 13 07:08:12 | 52.0060 | 0.00006 | 7.9153 | 138.2463 | 239.4782 | 12.62267 | 7.500 |
| 2026 Apr 12 17:57 | 2026 Apr 12 10:13:56 | 52.0059 | 0.00006 | 8.0920 | 137.6467 | 239.4782 | 12.62267 | 7.500 |
| 2026 Apr 11 17:57 | 2026 Apr 11 11:25:38 | 52.0059 | 0.00006 | 8.2849 | 136.7787 | 239.4782 | 12.62267 | 7.500 |
| 2026 Apr 10 17:58 | 2026 Apr 10 05:01:14 | 52.0060 | 0.00007 | 8.5420 | 136.0782 | 239.4782 | 12.62267 | 7.500 |
| 2026 Apr 09 18:01 | 2026 Apr 09 06:12:56 | 52.0061 | 0.00007 | 8.7348 | 135.3292 | 239.4782 | 12.62267 | 7.500 |
| 2026 Apr 08 17:57 | 2026 Apr 08 01:42:33 | 52.0062 | 0.00007 | 8.9759 | 134.1351 | 239.4782 | 12.62267 | 7.500 |
| 2026 Apr 07 17:57 | 2026 Apr 07 01:00:14 | 52.0063 | 0.00007 | 9.1847 | 133.1275 | 239.4782 | 12.62267 | 7.500 |
| 2026 Apr 06 17:57 | 2026 Apr 06 02:11:56 | 52.0064 | 0.00007 | 9.3776 | 132.1134 | 239.4782 | 12.62267 | 7.500 |
| 2026 Apr 05 17:56 | 2026 Apr 05 09:05:42 | 52.0065 | 0.00008 | 9.5222 | 131.3052 | 239.4782 | 12.62267 | 7.500 |
| 2026 Apr 04 17:57 | 2026 Apr 04 06:29:21 | 52.0067 | 0.00008 | 9.7472 | 130.0645 | 239.4782 | 12.62267 | 7.500 |